X  Lukk Metar værinformasjon om luftfart     EHEH Eindhoven Airport
Temperatur
18°C Temperatur
18°C Duggpunkt
100% Luftfuktighet



Vind
19 KM/T
12 MPT
5 M/S
10 KNP



250°
VSV
Nåværende forhold

Delvis overskyet Delvis overskyet
Trykk 1016.93 (hPa) - 30.03 (inHg)
Sikt 6 (mil) - 9.7 (km)
Flyplass
Flyplass-kode EHEH

Plassering: Eindhoven Airport
Avstand: 10 (km)

Metar:
EHEH 231517Z AUTO 25010KT 210V290 9999 FEW006 SCT007 BKN008 SCT015CB 18/18 Q1017 GRN TEMPO FEW015CB

Tid: 23-07-2024 17:17 CEST